createdAt,value
2019-05-01T00:00:37.049Z,28.60
2019-05-01T00:03:05.233Z,34.77
2019-05-01T00:05:36.707Z,32.73
2019-05-01T00:08:02.983Z,23.87
2019-05-01T00:10:48.948Z,26.60
2019-05-01T00:13:33.392Z,28.30
2019-05-01T00:16:18.189Z,31.67
2019-05-01T00:19:02.539Z,21.20
2019-05-01T00:21:47.155Z,34.47
2019-05-01T00:24:31.735Z,32.33
2019-05-01T00:27:16.470Z,35.63
2019-05-01T00:30:01.444Z,32.77
2019-05-01T00:32:47.863Z,34.47
2019-05-01T00:35:32.777Z,29.43
2019-05-01T00:38:17.492Z,31.43
2019-05-01T00:41:02.211Z,30.03
2019-05-01T00:43:46.649Z,35.08
2019-05-01T00:46:32.429Z,34.20
2019-05-01T00:49:17.151Z,29.90
2019-05-01T00:52:01.964Z,34.27
2019-05-01T00:54:48.687Z,29.53
2019-05-01T00:57:44.114Z,25.93
2019-05-01T01:00:42.569Z,26.50
2019-05-01T01:03:17.322Z,24.03
2019-05-01T01:06:03.276Z,26.33
2019-05-01T01:08:47.712Z,22.87
2019-05-01T01:11:32.242Z,26.87
2019-05-01T01:14:16.892Z,29.40
2019-05-01T01:17:01.556Z,28.03
2019-05-01T01:19:46.358Z,27.30
2019-05-01T01:22:30.844Z,27.70
2019-05-01T01:25:15.511Z,34.60
2019-05-01T01:27:54.924Z,30.63
2019-05-01T01:30:39.539Z,29.00
2019-05-01T01:33:23.869Z,31.20
2019-05-01T01:36:08.561Z,29.83
2019-05-01T01:38:53.047Z,28.37
2019-05-01T01:41:37.745Z,28.33
2019-05-01T01:44:24.179Z,33.93
2019-05-01T01:47:09.204Z,36.10
2019-05-01T01:49:53.705Z,32.23
2019-05-01T01:52:38.505Z,32.93
2019-05-01T01:55:23.158Z,29.93
2019-05-01T01:58:07.896Z,25.33
2019-05-01T02:01:08.900Z,29.83
2019-05-01T02:03:45.966Z,34.63
2019-05-01T02:06:31.003Z,38.63
2019-05-01T02:09:15.802Z,37.70
2019-05-01T02:12:01.858Z,35.83
2019-05-01T02:14:46.548Z,35.67
2019-05-01T02:17:31.122Z,33.00
2019-05-01T02:20:15.824Z,25.53
2019-05-01T02:23:00.429Z,24.23
2019-05-01T02:25:45.125Z,28.50
2019-05-01T02:28:37.804Z,30.87
2019-05-01T02:31:29.266Z,32.40
2019-05-01T02:34:10.544Z,33.57
2019-05-01T02:36:55.340Z,34.57
2019-05-01T02:39:39.769Z,30.10
2019-05-01T02:42:24.352Z,29.07
2019-05-01T02:45:09.067Z,27.83
2019-05-01T02:47:53.806Z,30.67
2019-05-01T02:50:38.236Z,32.33
2019-05-01T02:53:22.996Z,37.13
2019-05-01T02:56:15.973Z,30.57
2019-05-01T02:59:00.728Z,34.60
2019-05-01T03:01:47.629Z,31.47
2019-05-01T03:04:31.871Z,30.40
2019-05-01T03:07:16.559Z,37.23
2019-05-01T03:09:45.704Z,30.80
2019-05-01T03:12:14.541Z,30.33
2019-05-01T03:14:58.799Z,38.27
2019-05-01T03:17:45.400Z,29.87
2019-05-01T03:20:35.101Z,34.00
2019-05-01T03:23:28.181Z,35.23
2019-05-01T03:26:12.716Z,29.60
2019-05-01T03:28:57.562Z,37.80
2019-05-01T03:31:42.258Z,31.60
2019-05-01T03:34:26.832Z,35.97
2019-05-01T03:37:11.528Z,38.93
2019-05-01T03:39:56.116Z,35.57
2019-05-01T03:42:40.480Z,43.93
2019-05-01T03:45:28.200Z,35.20
2019-05-01T03:48:13.132Z,40.77
2019-05-01T03:50:39.410Z,41.77
2019-05-01T03:53:24.167Z,35.83
2019-05-01T03:56:08.769Z,41.17
2019-05-01T03:58:53.612Z,41.93
2019-05-01T04:01:40.235Z,39.50
2019-05-01T04:04:26.635Z,42.53
2019-05-01T04:07:11.413Z,36.50
2019-05-01T04:09:56.016Z,43.93
2019-05-01T04:12:40.562Z,44.47
2019-05-01T04:15:25.026Z,39.50
2019-05-01T04:18:09.948Z,36.43
2019-05-01T04:20:54.652Z,48.40
2019-05-01T04:23:41.236Z,47.97
2019-05-01T04:26:25.939Z,36.77
2019-05-01T04:29:15.573Z,44.37
2019-05-01T04:32:02.116Z,41.20
2019-05-01T04:35:05.676Z,42.20
2019-05-01T04:37:50.368Z,43.67
2019-05-01T04:40:35.157Z,37.87
2019-05-01T04:43:20.259Z,36.93
2019-05-01T04:46:05.006Z,34.73
2019-05-01T04:48:49.722Z,40.43
2019-05-01T04:51:34.436Z,39.83
2019-05-01T04:54:19.119Z,37.97
2019-05-01T04:57:03.702Z,39.80
2019-05-01T04:59:48.500Z,39.60
2019-05-01T05:02:39.042Z,38.53
2019-05-01T05:05:23.465Z,49.67
2019-05-01T05:08:07.976Z,40.97
2019-05-01T05:10:54.539Z,44.87
2019-05-01T05:13:46.841Z,41.30
2019-05-01T05:16:48.175Z,40.70
2019-05-01T05:19:32.550Z,41.27
2019-05-01T05:22:17.230Z,37.00
2019-05-01T05:25:01.845Z,35.50
2019-05-01T05:27:46.603Z,36.63
2019-05-01T05:30:31.062Z,37.13
2019-05-01T05:33:18.630Z,37.03
2019-05-01T05:36:02.382Z,35.93
2019-05-01T05:38:48.932Z,38.23
2019-05-01T05:41:33.630Z,37.47
2019-05-01T05:44:19.187Z,39.20
2019-05-01T05:47:03.566Z,32.40
2019-05-01T05:49:48.156Z,34.90
2019-05-01T05:52:34.466Z,40.63
2019-05-01T05:55:36.403Z,37.83
2019-05-01T05:58:31.899Z,36.93
2019-05-01T06:01:18.644Z,39.67
2019-05-01T06:04:11.548Z,39.37
2019-05-01T06:07:01.241Z,37.97
2019-05-01T06:09:48.572Z,32.10
2019-05-01T06:12:53.183Z,38.33
2019-05-01T06:15:41.212Z,36.10
2019-05-01T06:18:28.515Z,35.87
2019-05-01T06:21:18.120Z,33.20
2019-05-01T06:24:06.485Z,33.23
2019-05-01T06:26:51.150Z,34.30
2019-05-01T06:29:37.322Z,29.90
2019-05-01T06:32:22.056Z,35.93
2019-05-01T06:35:06.877Z,38.67
2019-05-01T06:37:51.531Z,37.20
2019-05-01T06:43:35.520Z,35.17
2019-05-01T06:46:11.800Z,30.60
2019-05-01T06:48:54.576Z,32.37
2019-05-01T06:51:52.592Z,37.03
2019-05-01T06:54:33.650Z,34.93
2019-05-01T06:57:18.388Z,35.73
2019-05-01T07:00:08.057Z,36.17
2019-05-01T07:02:52.176Z,29.37
2019-05-01T07:05:37.063Z,35.07
2019-05-01T07:08:24.801Z,30.37
2019-05-01T07:11:10.815Z,34.97
2019-05-01T07:13:55.776Z,28.37
2019-05-01T07:16:40.713Z,27.70
2019-05-01T07:19:44.455Z,25.43
2019-05-01T07:22:29.117Z,30.07
2019-05-01T07:25:17.092Z,31.80
2019-05-01T07:28:02.033Z,35.93
2019-05-01T07:30:49.947Z,28.67
2019-05-01T07:33:34.600Z,28.77
2019-05-01T07:36:19.488Z,32.33
2019-05-01T07:39:04.425Z,30.13
2019-05-01T07:41:49.212Z,30.20
2019-05-01T07:44:38.797Z,27.80
2019-05-01T07:47:30.566Z,34.17
2019-05-01T07:50:14.840Z,27.20
2019-05-01T07:52:59.741Z,28.77
2019-05-01T07:55:44.264Z,29.33
2019-05-01T07:58:29.139Z,27.80
2019-05-01T08:01:34.045Z,26.33
2019-05-01T08:04:35.251Z,26.63
2019-05-01T08:07:05.304Z,30.47
2019-05-01T08:09:51.368Z,28.90
2019-05-01T08:12:36.448Z,26.53
2019-05-01T08:15:22.572Z,23.73
2019-05-01T08:18:27.948Z,27.37
2019-05-01T08:21:15.222Z,28.73
2019-05-01T08:24:00.046Z,24.37
2019-05-01T08:26:45.981Z,32.97
2019-05-01T08:29:41.861Z,27.93
2019-05-01T08:32:38.920Z,23.77
2019-05-01T08:38:29.780Z,21.73
2019-05-01T08:41:14.928Z,22.00
2019-05-01T08:44:00.637Z,20.63
2019-05-01T08:46:51.054Z,29.50
2019-05-01T08:49:42.267Z,24.80
2019-05-01T08:52:24.953Z,27.37
2019-05-01T08:55:10.850Z,23.07
2019-05-01T08:57:56.722Z,21.53
2019-05-01T09:00:41.341Z,21.80
2019-05-01T09:03:25.829Z,23.87
2019-05-01T09:06:10.689Z,20.43
2019-05-01T09:08:55.475Z,18.67
2019-05-01T09:11:40.428Z,19.33
2019-05-01T09:14:25.086Z,19.73
2019-05-01T09:17:09.555Z,20.50
2019-05-01T09:19:54.314Z,19.02
2019-05-01T09:22:39.117Z,16.63
2019-05-01T09:25:25.683Z,20.10
2019-05-01T09:28:12.279Z,15.70
2019-05-01T09:30:49.651Z,20.00
2019-05-01T09:33:15.937Z,16.80
2019-05-01T09:36:00.413Z,15.93
2019-05-01T09:38:45.269Z,15.07
2019-05-01T09:41:37.937Z,13.67
2019-05-01T09:44:16.658Z,13.00
2019-05-01T09:47:02.017Z,13.27
2019-05-01T09:49:48.809Z,15.63
2019-05-01T09:52:41.368Z,13.07
2019-05-01T09:55:37.128Z,14.07
2019-05-01T09:58:22.118Z,13.10
2019-05-01T10:01:06.708Z,13.10
2019-05-01T10:03:54.464Z,11.10
2019-05-01T10:06:38.150Z,11.13
2019-05-01T10:09:22.882Z,11.87
2019-05-01T10:12:11.488Z,11.33
2019-05-01T10:14:53.980Z,11.00
2019-05-01T10:17:39.582Z,11.07
2019-05-01T10:20:24.560Z,12.73
2019-05-01T10:23:13.221Z,11.13
2019-05-01T10:25:57.338Z,11.63
2019-05-01T10:28:45.028Z,10.57
2019-05-01T10:31:49.536Z,11.30
2019-05-01T10:34:43.101Z,11.67
2019-05-01T10:37:33.407Z,9.17
2019-05-01T10:40:14.938Z,9.43
2019-05-01T10:42:59.392Z,20.17
2019-05-01T10:45:44.137Z,10.10
2019-05-01T10:48:29.981Z,9.53
2019-05-01T10:51:14.771Z,13.57
2019-05-01T10:53:59.365Z,12.73
2019-05-01T10:56:44.087Z,14.03
2019-05-01T10:59:28.918Z,9.77
2019-05-01T11:02:15.507Z,8.70
2019-05-01T11:05:00.033Z,9.73
2019-05-01T11:07:44.808Z,10.37
2019-05-01T11:10:29.492Z,10.00
2019-05-01T11:13:14.451Z,7.77
2019-05-01T11:15:58.995Z,9.33
2019-05-01T11:18:44.061Z,7.67
2019-05-01T11:21:28.792Z,9.97
2019-05-01T11:24:13.585Z,7.93
2019-05-01T11:26:53.333Z,8.20
2019-05-01T11:29:37.986Z,11.23
2019-05-01T11:32:24.600Z,10.73
2019-05-01T11:35:17.421Z,10.03
2019-05-01T11:38:20.769Z,9.10
2019-05-01T11:41:10.687Z,8.13
2019-05-01T11:43:55.376Z,8.60
2019-05-01T11:46:40.180Z,6.67
2019-05-01T11:49:24.623Z,7.63
2019-05-01T11:52:09.377Z,8.70
2019-05-01T11:54:54.309Z,7.20
2019-05-01T11:57:38.987Z,8.13
2019-05-01T12:00:24.877Z,7.87
2019-05-01T12:03:09.503Z,8.63
2019-05-01T12:05:54.186Z,9.10
2019-05-01T12:08:38.960Z,9.83
2019-05-01T12:11:25.252Z,9.90
2019-05-01T12:14:10.598Z,8.60
2019-05-01T12:20:03.337Z,7.30
2019-05-01T12:22:51.268Z,8.17
2019-05-01T12:25:34.332Z,6.37
2019-05-01T12:28:18.603Z,7.90
2019-05-01T12:31:03.011Z,10.43
2019-05-01T12:33:47.768Z,10.73
2019-05-01T12:36:36.344Z,8.60
2019-05-01T12:39:19.195Z,11.90
2019-05-01T12:42:04.051Z,6.70
2019-05-01T12:44:48.391Z,7.13
2019-05-01T12:47:41.377Z,6.47
2019-05-01T12:50:25.803Z,8.60
2019-05-01T12:53:15.170Z,6.30
2019-05-01T12:56:07.806Z,9.63
2019-05-01T12:58:51.411Z,10.67
2019-05-01T13:01:36.160Z,5.97
2019-05-01T13:04:20.593Z,8.63
2019-05-01T13:07:05.225Z,8.80
2019-05-01T13:09:49.956Z,6.60
2019-05-01T13:12:34.744Z,9.07
2019-05-01T13:15:19.304Z,5.83
2019-05-01T13:18:04.059Z,9.30
2019-05-01T13:20:48.869Z,7.70
2019-05-01T13:23:33.570Z,7.50
2019-05-01T13:26:23.379Z,6.50
2019-05-01T13:29:19.167Z,8.03
2019-05-01T13:32:07.763Z,6.20
2019-05-01T13:34:52.545Z,6.30
2019-05-01T13:37:37.218Z,6.47
2019-05-01T13:40:22.104Z,7.70
2019-05-01T13:43:06.832Z,6.67
2019-05-01T13:45:51.712Z,6.73
2019-05-01T13:48:36.200Z,6.10
2019-05-01T13:51:20.985Z,6.97
2019-05-01T13:54:06.446Z,5.63
2019-05-01T13:56:50.953Z,5.10
2019-05-01T13:59:35.407Z,7.47
2019-05-01T14:02:20.444Z,6.20
2019-05-01T14:05:05.064Z,5.90
2019-05-01T14:07:49.705Z,5.67
2019-05-01T14:10:34.268Z,10.03
2019-05-01T14:13:19.023Z,6.70
2019-05-01T14:16:03.968Z,6.13
2019-05-01T14:18:48.810Z,6.13
2019-05-01T14:21:37.529Z,7.73
2019-05-01T14:24:42.369Z,9.13
2019-05-01T14:27:26.845Z,8.30
2019-05-01T14:30:11.403Z,6.20
2019-05-01T14:32:55.904Z,6.83
2019-05-01T14:35:40.510Z,5.77
2019-05-01T14:38:25.137Z,5.03
2019-05-01T14:41:09.461Z,5.33
2019-05-01T14:43:54.127Z,9.40
2019-05-01T14:46:38.830Z,4.93
2019-05-01T14:49:23.791Z,4.97
2019-05-01T14:52:08.125Z,9.30
2019-05-01T14:54:52.934Z,5.20
2019-05-01T14:57:37.684Z,9.30
2019-05-01T15:00:42.180Z,6.93
2019-05-01T15:03:27.104Z,5.60
2019-05-01T15:06:11.833Z,6.60
2019-05-01T15:08:56.772Z,5.40
2019-05-01T15:11:42.689Z,5.90
2019-05-01T15:14:32.190Z,5.70
2019-05-01T15:17:24.604Z,8.70
2019-05-01T15:20:09.213Z,7.13
2019-05-01T15:22:53.744Z,6.45
2019-05-01T15:25:38.453Z,5.55
2019-05-01T15:28:23.148Z,6.47
2019-05-01T15:31:07.807Z,7.08
2019-05-01T15:33:52.288Z,6.90
2019-05-01T15:36:36.974Z,5.85
2019-05-01T15:39:26.779Z,9.40
2019-05-01T15:42:19.633Z,6.55
2019-05-01T15:45:04.125Z,7.53
2019-05-01T15:47:48.636Z,8.55
2019-05-01T15:50:33.517Z,7.17
2019-05-01T15:53:18.015Z,7.53
2019-05-01T15:56:02.946Z,7.67
2019-05-01T15:58:47.412Z,7.17
2019-05-01T16:01:32.292Z,7.58
2019-05-01T16:04:17.099Z,9.00
2019-05-01T16:07:01.812Z,8.75
2019-05-01T16:09:46.296Z,8.85
2019-05-01T16:12:32.953Z,8.85
2019-05-01T16:15:19.905Z,7.78
2019-05-01T16:18:04.459Z,7.17
2019-05-01T16:20:49.319Z,8.18
2019-05-01T16:23:33.928Z,7.33
2019-05-01T16:26:18.675Z,7.37
2019-05-01T16:29:03.312Z,6.50
2019-05-01T16:31:47.946Z,7.70
2019-05-01T16:34:32.451Z,7.90
2019-05-01T16:37:16.811Z,7.35
2019-05-01T16:40:20.559Z,9.13
2019-05-01T16:43:07.124Z,7.83
2019-05-01T16:45:51.596Z,7.30
2019-05-01T16:48:36.332Z,9.45
2019-05-01T16:51:21.137Z,9.03
2019-05-01T16:54:06.040Z,8.80
2019-05-01T16:56:50.561Z,7.53
2019-05-01T16:59:35.664Z,6.60
2019-05-01T17:02:29.017Z,7.05
2019-05-01T17:05:15.382Z,6.35
2019-05-01T17:08:14.435Z,6.62
2019-05-01T17:10:59.445Z,7.90
2019-05-01T17:13:43.897Z,8.50
2019-05-01T17:16:28.676Z,6.83
2019-05-01T17:19:13.412Z,7.30
2019-05-01T17:21:58.984Z,8.00
2019-05-01T17:24:43.475Z,7.53
2019-05-01T17:27:28.229Z,8.73
2019-05-01T17:30:32.905Z,8.40
2019-05-01T17:33:20.982Z,7.57
2019-05-01T17:36:03.707Z,7.70
2019-05-01T17:38:49.735Z,8.83
2019-05-01T17:41:34.617Z,7.50
2019-05-01T17:44:20.030Z,7.77
2019-05-01T17:47:05.816Z,5.93
2019-05-01T17:49:32.495Z,9.17
2019-05-01T17:52:17.237Z,6.77
2019-05-01T17:54:56.318Z,5.63
2019-05-01T17:57:40.827Z,5.97
2019-05-01T18:00:36.812Z,7.97
2019-05-01T18:03:35.982Z,6.07
2019-05-01T18:06:26.167Z,7.23
2019-05-01T18:09:13.603Z,6.20
2019-05-01T18:11:57.868Z,6.97
2019-05-01T18:14:42.628Z,6.57
2019-05-01T18:17:27.620Z,10.10
2019-05-01T18:20:14.160Z,6.67
2019-05-01T18:23:12.551Z,8.93
2019-05-01T18:26:08.618Z,9.73
2019-05-01T18:29:05.773Z,7.50
2019-05-01T18:31:49.191Z,8.57
2019-05-01T18:34:38.176Z,10.33
2019-05-01T18:37:25.831Z,8.00
2019-05-01T18:40:18.480Z,7.93
2019-05-01T18:43:04.008Z,9.57
2019-05-01T18:45:30.331Z,13.90
2019-05-01T18:48:15.133Z,8.60
2019-05-01T18:51:02.380Z,10.00
2019-05-01T18:53:46.843Z,7.60
2019-05-01T18:56:31.746Z,7.43
2019-05-01T18:59:16.568Z,7.60
2019-05-01T19:02:01.599Z,8.03
2019-05-01T19:04:46.515Z,11.97
2019-05-01T19:07:31.193Z,10.93
2019-05-01T19:10:17.006Z,15.30
2019-05-01T19:13:01.687Z,10.33
2019-05-01T19:15:49.268Z,9.70
2019-05-01T19:18:33.927Z,8.43
2019-05-01T19:21:23.509Z,17.93
2019-05-01T19:24:07.204Z,15.80
2019-05-01T19:26:52.146Z,19.37
2019-05-01T19:29:53.503Z,14.30
2019-05-01T19:32:38.183Z,9.57
2019-05-01T19:35:23.770Z,9.83
2019-05-01T19:38:18.748Z,14.03
2019-05-01T19:41:08.339Z,19.27
2019-05-01T19:43:50.104Z,12.70
2019-05-01T19:46:34.762Z,17.33
2019-05-01T19:52:02.212Z,25.60
2019-05-01T19:54:46.848Z,23.03
2019-05-01T19:57:32.415Z,23.73
2019-05-01T20:00:18.103Z,17.20
2019-05-01T20:03:06.679Z,21.50
2019-05-01T20:05:51.368Z,17.03
2019-05-01T20:08:36.136Z,18.77
2019-05-01T20:11:21.074Z,24.17
2019-05-01T20:14:06.269Z,15.23
2019-05-01T20:16:51.304Z,17.87
2019-05-01T20:19:36.104Z,16.67
2019-05-01T20:22:20.768Z,13.87
2019-05-01T20:25:05.524Z,10.40
2019-05-01T20:27:53.140Z,10.73
2019-05-01T20:30:38.880Z,11.17
2019-05-01T20:33:23.520Z,11.40
2019-05-01T20:36:08.034Z,13.17
2019-05-01T20:38:52.794Z,11.10
2019-05-01T20:41:37.629Z,10.27
2019-05-01T20:44:23.944Z,11.33
2019-05-01T20:47:08.463Z,13.47
2019-05-01T20:49:53.155Z,13.47
2019-05-01T20:52:37.664Z,23.97
2019-05-01T20:55:28.480Z,16.40
2019-05-01T20:58:20.324Z,20.40
2019-05-01T21:01:04.955Z,12.87
2019-05-01T21:03:52.542Z,11.70
2019-05-01T21:06:43.671Z,15.10
2019-05-01T21:09:31.597Z,20.27
2019-05-01T21:12:16.318Z,18.10
2019-05-01T21:15:01.138Z,16.83
2019-05-01T21:18:07.432Z,17.33
2019-05-01T21:20:54.043Z,14.40
2019-05-01T21:23:39.094Z,14.00
2019-05-01T21:26:23.704Z,16.30
2019-05-01T21:29:08.468Z,12.00
2019-05-01T21:31:56.158Z,15.60
2019-05-01T21:34:40.604Z,14.03
2019-05-01T21:37:25.527Z,11.43
2019-05-01T21:40:10.353Z,11.43
2019-05-01T21:42:55.866Z,13.37
2019-05-01T21:45:40.478Z,11.60
2019-05-01T21:48:24.984Z,11.23
2019-05-01T21:51:09.587Z,9.47
2019-05-01T21:53:54.408Z,10.50
2019-05-01T21:56:41.446Z,10.17
2019-05-01T21:59:25.595Z,11.70
2019-05-01T22:02:10.088Z,9.63
2019-05-01T22:04:52.068Z,12.47
2019-05-01T22:07:36.846Z,10.50
2019-05-01T22:10:21.595Z,13.03
2019-05-01T22:13:08.102Z,11.90
2019-05-01T22:15:54.454Z,12.27
2019-05-01T22:18:44.133Z,16.50
2019-05-01T22:21:39.674Z,10.43
2019-05-01T22:24:38.411Z,17.37
2019-05-01T22:27:24.755Z,11.93
2019-05-01T22:30:14.234Z,12.17
2019-05-01T22:32:59.676Z,10.60
2019-05-01T22:35:46.130Z,12.93
2019-05-01T22:38:30.818Z,11.83
2019-05-01T22:41:15.472Z,14.10
2019-05-01T22:43:59.971Z,17.33
2019-05-01T22:46:44.743Z,11.67
2019-05-01T22:49:29.096Z,15.10
2019-05-01T22:52:13.854Z,16.02
2019-05-01T22:54:58.395Z,12.63
2019-05-01T22:57:43.121Z,11.43
2019-05-01T23:00:29.748Z,10.47
2019-05-01T23:03:19.095Z,10.83
2019-05-01T23:06:06.271Z,11.50
2019-05-01T23:08:50.700Z,13.03
2019-05-01T23:11:37.311Z,10.47
2019-05-01T23:14:22.492Z,14.90
2019-05-01T23:17:08.820Z,13.10
2019-05-01T23:19:53.536Z,11.80
2019-05-01T23:22:38.480Z,11.83
2019-05-01T23:25:22.879Z,11.67
2019-05-01T23:28:07.844Z,15.97
2019-05-01T23:30:52.674Z,11.97
2019-05-01T23:33:37.442Z,13.87
2019-05-01T23:36:23.863Z,12.17
2019-05-01T23:39:09.669Z,12.20
2019-05-01T23:41:54.679Z,16.03
2019-05-01T23:44:44.472Z,12.40
2019-05-01T23:47:29.162Z,14.70
2019-05-01T23:50:13.995Z,12.00
2019-05-01T23:52:58.714Z,12.63
2019-05-01T23:55:44.490Z,16.33
2019-05-01T23:58:29.268Z,14.00
